Time;durP1;ratioP1;P1;durP2;ratioP2;P2;SDS_P1;SDS_P2;PMS_P1;PMS_P2;Temp;Humidity;BMP_temperature;BMP_pressure;BME280_temperature;BME280_humidity;BME280_pressure;Samples;Min_cycle;Max_cycle;Signal;HPM_P1;HPM_P2
2022/06/19 00:00:27;;;;;;;13.03;10.77;;;22.70;92.10;;;;;;4973297;28;20468;-56
2022/06/19 00:02:53;;;;;;;14.47;10.90;;;22.70;92.50;;;;;;4972270;28;20474;-56
2022/06/19 00:05:19;;;;;;;12.80;11.30;;;22.60;92.90;;;;;;4973545;28;20184;-55
2022/06/19 00:07:44;;;;;;;12.47;11.17;;;22.50;93.40;;;;;;4966866;28;20560;-56
2022/06/19 00:10:10;;;;;;;12.27;11.00;;;22.50;93.80;;;;;;4973455;28;20178;-53
2022/06/19 00:12:36;;;;;;;13.30;11.53;;;22.40;94.40;;;;;;4972310;28;20617;-55
2022/06/19 00:15:03;;;;;;;17.20;10.70;;;22.40;94.50;;;;;;4973247;28;20451;-57
2022/06/19 00:17:29;;;;;;;18.53;12.10;;;22.30;95.40;;;;;;4972136;28;20509;-53
2022/06/19 00:19:55;;;;;;;12.20;11.00;;;22.20;96.10;;;;;;4980462;28;20454;-56
2022/06/19 00:22:20;;;;;;;13.70;11.27;;;22.10;96.60;;;;;;4984416;28;20219;-56
2022/06/19 00:24:46;;;;;;;11.97;10.80;;;22.10;96.90;;;;;;4971703;28;20212;-53
2022/06/19 00:27:11;;;;;;;12.63;10.80;;;22.00;97.40;;;;;;4972216;28;20643;-55
2022/06/19 00:29:37;;;;;;;12.77;11.17;;;22.00;97.70;;;;;;4973014;28;20172;-55
2022/06/19 00:32:06;;;;;;;17.77;10.77;;;21.90;98.10;;;;;;4968311;28;20201;-55
2022/06/19 00:34:32;;;;;;;11.97;10.63;;;21.80;98.10;;;;;;4971350;28;20301;-56
2022/06/19 00:37:00;;;;;;;12.17;10.67;;;21.80;98.60;;;;;;4971859;28;20510;-53
2022/06/19 00:39:26;;;;;;;13.47;11.70;;;21.80;98.70;;;;;;4971845;28;20180;-52
2022/06/19 00:41:52;;;;;;;12.23;10.33;;;21.70;98.80;;;;;;4971911;28;20874;-56
2022/06/19 00:44:18;;;;;;;14.97;10.80;;;21.70;99.00;;;;;;4971470;28;20220;-53
2022/06/19 00:46:45;;;;;;;14.03;10.23;;;21.70;98.80;;;;;;4972276;28;20256;-55
2022/06/19 00:49:23;;;;;;;11.27;10.20;;;21.70;98.70;;;;;;4973532;28;20198;-55
2022/06/19 00:52:01;;;;;;;13.40;10.90;;;21.70;98.50;;;;;;4980503;28;20458;-53
2022/06/19 00:54:31;;;;;;;13.93;10.43;;;21.70;98.50;;;;;;4974564;28;20455;-55
2022/06/19 00:56:56;;;;;;;14.20;11.77;;;21.70;98.20;;;;;;4972233;28;20434;-54
2022/06/19 00:59:23;;;;;;;11.00;9.90;;;21.70;98.10;;;;;;4971218;28;20449;-54
2022/06/19 01:01:48;;;;;;;13.77;10.77;;;21.70;97.80;;;;;;4971823;28;20242;-54
2022/06/19 01:04:19;;;;;;;14.97;10.63;;;21.70;97.40;;;;;;4968185;28;20449;-56
2022/06/19 01:06:45;;;;;;;11.67;10.47;;;21.70;97.30;;;;;;4970786;28;20195;-57
2022/06/19 01:09:10;;;;;;;14.17;10.47;;;21.70;97.60;;;;;;4968419;28;20435;-55
2022/06/19 01:11:38;;;;;;;13.03;10.03;;;21.70;97.80;;;;;;4971948;28;20501;-52
2022/06/19 01:14:08;;;;;;;17.23;10.33;;;21.70;98.00;;;;;;4957557;28;20543;-53
2022/06/19 01:16:34;;;;;;;14.30;9.73;;;21.70;97.90;;;;;;4978892;28;20430;-56
2022/06/19 01:19:00;;;;;;;18.10;10.17;;;21.70;98.10;;;;;;4960259;28;20758;-55
2022/06/19 01:21:31;;;;;;;14.23;10.57;;;21.60;98.10;;;;;;4962324;28;20203;-54
2022/06/19 01:24:03;;;;;;;14.57;10.53;;;21.60;98.10;;;;;;4981584;28;20709;-57
2022/06/19 01:26:35;;;;;;;12.07;10.17;;;21.60;98.50;;;;;;4987775;28;20471;-52
2022/06/19 01:29:02;;;;;;;12.30;10.70;;;21.60;98.60;;;;;;4972282;28;20429;-55
2022/06/19 01:31:51;;;;;;;13.00;10.57;;;21.60;98.60;;;;;;4969827;28;20494;-57
2022/06/19 01:34:29;;;;;;;15.07;9.90;;;21.50;98.90;;;;;;4971453;28;20402;-56
2022/06/19 01:37:12;;;;;;;13.17;10.93;;;21.50;99.20;;;;;;4970275;28;20444;-51
2022/06/19 01:39:42;;;;;;;14.23;10.23;;;21.40;99.50;;;;;;4952339;28;20458;-53
2022/06/19 01:42:10;;;;;;;11.17;10.10;;;21.40;99.90;;;;;;4952422;28;20450;-55
2022/06/19 01:44:37;;;;;;;12.67;9.33;;;21.40;99.90;;;;;;4970022;28;21212;-54
2022/06/19 01:47:03;;;;;;;12.70;10.60;;;21.40;99.90;;;;;;4971026;28;20499;-54
2022/06/19 01:49:31;;;;;;;11.80;10.60;;;21.40;99.90;;;;;;4972691;28;20497;-52
2022/06/19 01:51:57;;;;;;;12.87;10.33;;;21.30;99.90;;;;;;4980345;28;20427;-56
2022/06/19 01:54:28;;;;;;;14.37;10.70;;;21.30;99.90;;;;;;4973243;28;20441;-53
2022/06/19 01:56:54;;;;;;;15.60;10.13;;;21.30;99.90;;;;;;4984951;28;20657;-57
2022/06/19 01:59:22;;;;;;;15.53;10.37;;;21.30;99.90;;;;;;4967134;28;20829;-54
2022/06/19 02:01:53;;;;;;;12.30;10.13;;;21.30;99.90;;;;;;4972394;28;20528;-57
2022/06/19 02:04:19;;;;;;;13.20;10.20;;;21.20;99.90;;;;;;4957832;28;20446;-51
2022/06/19 02:06:47;;;;;;;10.97;9.97;;;21.20;99.90;;;;;;4972786;28;20429;-55
2022/06/19 02:09:17;;;;;;;14.00;11.40;;;21.20;99.90;;;;;;4970665;28;20455;-55
2022/06/19 02:11:43;;;;;;;17.63;10.33;;;21.10;99.90;;;;;;4959564;28;20920;-56
2022/06/19 02:14:11;;;;;;;12.80;9.73;;;21.10;99.90;;;;;;4971575;28;20446;-56
2022/06/19 02:16:43;;;;;;;14.57;10.60;;;21.10;99.90;;;;;;4971739;28;20724;-55
2022/06/19 02:19:09;;;;;;;15.47;10.00;;;21.00;99.90;;;;;;4971398;28;20474;-56
2022/06/19 02:21:44;;;;;;;11.07;9.83;;;21.00;99.90;;;;;;4971616;28;21022;-56
2022/06/19 02:24:12;;;;;;;11.23;10.13;;;21.00;99.90;;;;;;4983903;28;20472;-57
2022/06/19 02:26:40;;;;;;;10.80;9.87;;;21.00;99.90;;;;;;4977873;28;20503;-56
2022/06/19 02:29:11;;;;;;;11.10;9.90;;;21.00;99.90;;;;;;4972291;28;20434;-58
2022/06/19 02:31:39;;;;;;;14.00;10.00;;;21.00;99.90;;;;;;4970986;28;20504;-54
2022/06/19 02:34:16;;;;;;;11.20;10.00;;;21.10;99.90;;;;;;4972198;28;20772;-57
2022/06/19 02:36:49;;;;;;;12.53;10.60;;;21.10;99.90;;;;;;4971654;28;20944;-56
2022/06/19 02:39:21;;;;;;;12.87;9.93;;;21.10;99.80;;;;;;4972308;28;20429;-53
2022/06/19 02:42:22;;;;;;;13.13;10.70;;;21.10;99.50;;;;;;4971458;28;20828;-54
2022/06/19 02:44:50;;;;;;;11.33;9.80;;;21.20;99.20;;;;;;4971080;28;20441;-56
2022/06/19 02:47:16;;;;;;;10.97;9.60;;;21.20;99.00;;;;;;4970320;28;20432;-55
2022/06/19 02:49:42;;;;;;;15.10;10.70;;;21.20;99.10;;;;;;4970720;28;20434;-52
2022/06/19 02:52:10;;;;;;;12.93;9.47;;;21.20;98.70;;;;;;4975588;28;20502;-56
2022/06/19 02:54:36;;;;;;;10.57;9.53;;;21.30;98.50;;;;;;4972066;28;20327;-57
2022/06/19 02:57:03;;;;;;;11.57;10.53;;;21.30;98.40;;;;;;4970274;28;20433;-51
2022/06/19 02:59:28;;;;;;;12.03;10.07;;;21.40;98.30;;;;;;4970016;28;20447;-54
2022/06/19 03:01:54;;;;;;;11.20;10.00;;;21.50;98.10;;;;;;4971921;28;21231;-52
2022/06/19 03:04:26;;;;;;;9.90;8.87;;;21.40;98.00;;;;;;4974150;28;20212;-54
2022/06/19 03:06:52;;;;;;;11.07;10.00;;;21.50;98.00;;;;;;4973616;28;20684;-55
2022/06/19 03:09:18;;;;;;;11.57;10.37;;;21.50;98.00;;;;;;4974000;28;20442;-55
2022/06/19 03:11:44;;;;;;;12.43;9.93;;;21.50;97.90;;;;;;4972060;28;20437;-53
2022/06/19 03:14:10;;;;;;;11.17;9.90;;;21.60;97.90;;;;;;4974139;28;21091;-56
2022/06/19 03:16:35;;;;;;;12.07;10.87;;;21.60;97.70;;;;;;4974136;28;20546;-56
2022/06/19 03:19:01;;;;;;;11.77;10.77;;;21.70;97.50;;;;;;4959702;28;20673;-57
2022/06/19 03:21:27;;;;;;;10.50;9.60;;;21.70;97.40;;;;;;4973797;28;20208;-56
2022/06/19 03:23:54;;;;;;;11.67;9.70;;;21.70;97.30;;;;;;4973479;28;20439;-51
2022/06/19 03:26:19;;;;;;;10.97;9.97;;;21.80;97.10;;;;;;4973706;28;20445;-55
2022/06/19 03:28:45;;;;;;;11.60;9.90;;;21.80;96.70;;;;;;4972310;28;20869;-56
2022/06/19 03:31:16;;;;;;;11.03;9.93;;;21.90;96.60;;;;;;4972333;28;20188;-56
2022/06/19 03:33:42;;;;;;;9.90;9.10;;;21.90;96.30;;;;;;4972559;28;20178;-54
2022/06/19 03:36:07;;;;;;;10.00;9.10;;;22.00;95.90;;;;;;4973794;28;20872;-53
2022/06/19 03:38:33;;;;;;;10.17;9.17;;;22.10;95.60;;;;;;4982243;28;20311;-56
2022/06/19 03:40:58;;;;;;;11.37;9.70;;;22.10;95.20;;;;;;4966404;28;20199;-55
2022/06/19 03:43:24;;;;;;;10.83;9.80;;;22.30;94.90;;;;;;4972327;28;20184;-54
2022/06/19 03:45:50;;;;;;;10.47;9.50;;;22.40;94.40;;;;;;4973596;28;20188;-55
2022/06/19 03:48:16;;;;;;;10.80;9.80;;;22.50;94.10;;;;;;4972595;28;20187;-55
2022/06/19 03:50:42;;;;;;;11.17;9.43;;;22.50;93.80;;;;;;4982852;28;20668;-55
2022/06/19 03:53:08;;;;;;;10.37;9.50;;;22.60;93.70;;;;;;4973148;28;20197;-55
2022/06/19 03:55:34;;;;;;;11.97;9.20;;;22.60;93.40;;;;;;4973446;28;20935;-55
2022/06/19 03:58:00;;;;;;;10.60;9.60;;;22.60;93.30;;;;;;4972567;28;20437;-56
2022/06/19 04:00:26;;;;;;;9.93;8.90;;;22.80;93.10;;;;;;4973119;28;20242;-55
2022/06/19 04:02:51;;;;;;;11.87;9.97;;;22.80;92.90;;;;;;4972405;28;20963;-56
2022/06/19 04:05:18;;;;;;;11.37;9.27;;;22.80;92.70;;;;;;4973220;28;20227;-53
2022/06/19 04:07:49;;;;;;;10.50;9.50;;;23.00;92.50;;;;;;4972354;28;20243;-57
2022/06/19 04:10:17;;;;;;;13.80;9.53;;;23.00;92.50;;;;;;4973211;28;20482;-53
2022/06/19 04:12:43;;;;;;;10.50;9.00;;;23.00;92.30;;;;;;4968742;28;20447;-57
2022/06/19 04:15:11;;;;;;;10.47;9.47;;;23.10;92.10;;;;;;4971672;28;20522;-56
2022/06/19 04:17:38;;;;;;;10.90;9.80;;;23.20;92.00;;;;;;4973100;28;20453;-55
2022/06/19 04:20:05;;;;;;;10.47;9.13;;;23.20;91.70;;;;;;4972601;28;20483;-55
2022/06/19 04:22:30;;;;;;;11.53;10.33;;;23.30;91.80;;;;;;4981665;28;20472;-56
2022/06/19 04:24:56;;;;;;;11.17;9.27;;;23.30;91.80;;;;;;4972530;28;20450;-55
2022/06/19 04:27:23;;;;;;;12.40;9.37;;;23.30;91.70;;;;;;4972868;28;20239;-53
2022/06/19 04:29:49;;;;;;;15.33;9.90;;;23.40;91.50;;;;;;4971819;28;20181;-56
2022/06/19 04:32:15;;;;;;;10.37;9.30;;;23.50;91.40;;;;;;4972650;28;20435;-56
2022/06/19 04:34:40;;;;;;;11.70;10.53;;;23.50;91.30;;;;;;4971965;28;20242;-55
2022/06/19 04:37:06;;;;;;;11.43;9.30;;;23.50;91.00;;;;;;4972761;28;20196;-55
2022/06/19 04:39:31;;;;;;;10.10;9.30;;;23.60;90.90;;;;;;4970612;28;20220;-52
2022/06/19 04:41:57;;;;;;;12.17;9.50;;;23.70;90.70;;;;;;4972347;28;20232;-56
2022/06/19 04:44:23;;;;;;;11.17;10.10;;;23.80;90.60;;;;;;4971699;28;20185;-53
2022/06/19 04:46:48;;;;;;;11.10;10.03;;;23.80;90.60;;;;;;4971897;28;20535;-54
2022/06/19 04:49:15;;;;;;;13.13;9.70;;;23.80;90.40;;;;;;5003009;28;20841;-55
2022/06/19 04:51:41;;;;;;;11.10;9.90;;;23.80;90.70;;;;;;4970031;28;20655;-54
2022/06/19 04:54:07;;;;;;;15.33;9.53;;;23.90;90.50;;;;;;4972958;28;20436;-54
2022/06/19 04:56:33;;;;;;;13.23;10.53;;;23.90;90.60;;;;;;4971382;28;20482;-54
2022/06/19 04:58:59;;;;;;;11.63;10.50;;;23.90;90.60;;;;;;4971993;28;20486;-54
2022/06/19 05:01:29;;;;;;;11.30;10.30;;;24.00;90.80;;;;;;4970248;28;20484;-53
2022/06/19 05:03:57;;;;;;;11.40;10.33;;;23.90;91.10;;;;;;4959876;28;20236;-57
2022/06/19 05:06:24;;;;;;;11.20;10.13;;;23.90;91.30;;;;;;4953020;28;20452;-54
2022/06/19 05:08:50;;;;;;;10.77;9.77;;;23.90;91.60;;;;;;4971766;28;20416;-57
2022/06/19 05:11:16;;;;;;;11.93;10.77;;;23.90;92.00;;;;;;4971971;28;20777;-53
2022/06/19 05:13:42;;;;;;;13.03;10.63;;;23.80;92.50;;;;;;4970859;28;20429;-52
2022/06/19 05:16:14;;;;;;;11.80;10.80;;;23.90;92.80;;;;;;4972307;28;20393;-55
2022/06/19 05:18:40;;;;;;;11.57;10.57;;;23.80;93.20;;;;;;4968336;28;20197;-52
2022/06/19 05:21:06;;;;;;;12.40;11.30;;;23.80;93.30;;;;;;4971947;28;20407;-54
2022/06/19 05:23:34;;;;;;;12.30;11.20;;;23.90;93.40;;;;;;4973537;28;20207;-55
2022/06/19 05:26:27;;;;;;;12.57;11.43;;;23.90;93.50;;;;;;4971321;28;20416;-52
2022/06/19 05:28:55;;;;;;;12.27;11.27;;;23.90;93.80;;;;;;4984954;28;20795;-55
2022/06/19 05:31:21;;;;;;;13.03;11.70;;;24.00;93.20;;;;;;4971803;28;20408;-56
2022/06/19 05:33:47;;;;;;;11.60;10.50;;;24.00;93.10;;;;;;4971205;28;20436;-57
2022/06/19 05:36:13;;;;;;;11.90;10.80;;;24.10;92.80;;;;;;4971832;28;20412;-57
2022/06/19 05:38:39;;;;;;;11.37;10.57;;;24.10;92.30;;;;;;4971254;28;22050;-54
2022/06/19 05:41:05;;;;;;;11.97;10.90;;;24.20;92.10;;;;;;4971576;28;20419;-53
2022/06/19 05:43:33;;;;;;;12.27;11.00;;;24.20;91.70;;;;;;4970892;28;20182;-54
2022/06/19 05:46:14;;;;;;;11.90;10.83;;;24.20;91.40;;;;;;4971403;28;20181;-55
2022/06/19 05:48:40;;;;;;;12.83;11.57;;;24.30;91.40;;;;;;4969764;28;20429;-53
2022/06/19 05:51:18;;;;;;;11.90;11.00;;;24.40;91.00;;;;;;4973771;28;20946;-55
2022/06/19 05:53:47;;;;;;;11.27;10.47;;;24.60;90.30;;;;;;4967634;28;20443;-53
2022/06/19 05:56:12;;;;;;;11.57;10.47;;;24.70;90.20;;;;;;4976405;28;20442;-53
2022/06/19 05:58:39;;;;;;;13.03;10.03;;;24.70;89.10;;;;;;4970578;28;20468;-53
2022/06/19 06:01:05;;;;;;;11.30;10.40;;;24.80;88.50;;;;;;4970527;28;20336;-56
2022/06/19 06:03:32;;;;;;;11.20;10.30;;;24.90;86.90;;;;;;4976767;28;20531;-56
2022/06/19 06:06:02;;;;;;;10.93;10.23;;;25.00;86.50;;;;;;4971130;28;20436;-57
2022/06/19 06:08:28;;;;;;;16.00;10.43;;;25.00;85.70;;;;;;4971060;28;20500;-57
2022/06/19 06:10:54;;;;;;;11.77;10.73;;;25.10;85.00;;;;;;4969980;28;20447;-56
2022/06/19 06:13:19;;;;;;;10.40;9.50;;;25.20;83.90;;;;;;4970856;28;20772;-52
2022/06/19 06:15:46;;;;;;;12.40;11.20;;;25.20;83.30;;;;;;4969922;28;20191;-54
2022/06/19 06:18:12;;;;;;;11.03;9.97;;;25.40;82.50;;;;;;4971216;28;20225;-53
2022/06/19 06:20:38;;;;;;;10.70;9.90;;;25.40;82.10;;;;;;4963800;28;20485;-51
2022/06/19 06:23:04;;;;;;;10.27;9.37;;;25.50;81.80;;;;;;4972313;28;20561;-55
2022/06/19 06:25:30;;;;;;;11.33;10.33;;;25.60;80.80;;;;;;4968124;28;20879;-55
2022/06/19 06:27:55;;;;;;;11.63;10.53;;;25.50;80.20;;;;;;4968091;28;20908;-56
2022/06/19 06:30:21;;;;;;;9.73;9.13;;;25.60;80.40;;;;;;4966385;28;20234;-55
2022/06/19 06:32:47;;;;;;;10.97;9.93;;;25.60;80.00;;;;;;4966319;28;20215;-55
2022/06/19 06:35:12;;;;;;;11.10;10.07;;;25.70;79.40;;;;;;4967263;28;20625;-57
2022/06/19 06:37:38;;;;;;;11.10;10.20;;;25.80;78.90;;;;;;4969348;28;20195;-54
2022/06/19 06:40:09;;;;;;;10.43;9.63;;;25.90;78.40;;;;;;4970144;28;20275;-50
2022/06/19 06:42:35;;;;;;;11.00;10.00;;;25.90;78.00;;;;;;4967698;28;20219;-56
2022/06/19 06:45:02;;;;;;;10.33;9.33;;;26.10;77.90;;;;;;5001726;28;20461;-53
2022/06/19 06:47:28;;;;;;;11.07;10.10;;;26.20;77.30;;;;;;4962321;28;20817;-55
2022/06/19 06:49:54;;;;;;;9.10;8.23;;;26.20;77.00;;;;;;4961715;28;20430;-52
2022/06/19 06:52:19;;;;;;;10.53;9.60;;;26.30;75.90;;;;;;4969584;28;20441;-56
2022/06/19 06:54:45;;;;;;;10.50;9.50;;;26.50;75.00;;;;;;4970445;28;20187;-56
2022/06/19 06:57:11;;;;;;;10.50;9.60;;;26.60;72.90;;;;;;4968386;28;20203;-54
2022/06/19 06:59:37;;;;;;;11.63;9.47;;;26.80;72.10;;;;;;4970286;28;20197;-56
2022/06/19 07:02:05;;;;;;;10.10;9.17;;;26.90;71.00;;;;;;4966860;28;20243;-58
2022/06/19 07:04:30;;;;;;;9.70;8.67;;;27.10;70.30;;;;;;4970379;28;20447;-56
2022/06/19 07:06:56;;;;;;;10.03;8.87;;;27.30;69.00;;;;;;4969804;28;20448;-55
2022/06/19 07:09:22;;;;;;;10.20;9.27;;;27.40;68.20;;;;;;4969707;28;20216;-57
2022/06/19 07:11:48;;;;;;;10.43;9.17;;;27.50;68.50;;;;;;4969596;28;20211;-56
2022/06/19 07:14:15;;;;;;;9.80;8.83;;;27.80;66.70;;;;;;4969236;28;20192;-52
2022/06/19 07:16:40;;;;;;;8.27;7.57;;;28.10;63.40;;;;;;4970597;28;20476;-56
2022/06/19 07:19:07;;;;;;;9.60;7.93;;;28.40;58.50;;;;;;4969996;28;20540;-57
2022/06/19 07:21:33;;;;;;;10.83;7.10;;;28.70;55.20;;;;;;4970694;28;20223;-56
2022/06/19 07:23:59;;;;;;;8.70;8.03;;;29.00;53.00;;;;;;4969891;28;20903;-56
2022/06/19 07:26:26;;;;;;;11.10;7.70;;;29.30;51.80;;;;;;4970591;28;20422;-58
2022/06/19 07:28:52;;;;;;;13.03;7.83;;;29.50;50.10;;;;;;4969410;28;20192;-56
2022/06/19 07:31:18;;;;;;;9.23;8.27;;;29.70;49.10;;;;;;4970801;28;20492;-55
2022/06/19 07:33:43;;;;;;;9.70;8.10;;;29.90;47.90;;;;;;4968202;28;21181;-53
2022/06/19 07:36:21;;;;;;;9.30;8.40;;;30.00;47.70;;;;;;4969169;28;20173;-58
2022/06/19 07:38:47;;;;;;;10.00;8.13;;;30.20;45.20;;;;;;4969209;28;20185;-57
2022/06/19 07:41:13;;;;;;;10.50;7.90;;;30.40;44.20;;;;;;4969704;28;20458;-58
2022/06/19 07:43:39;;;;;;;10.77;8.13;;;30.60;42.90;;;;;;4967180;28;20847;-57
2022/06/19 07:46:05;;;;;;;8.27;7.53;;;30.70;40.70;;;;;;4971346;28;20516;-56
2022/06/19 07:51:15;;;;;;;9.53;7.83;;;31.00;38.30;;;;;;4972744;28;20188;-58
2022/06/19 07:53:41;;;;;;;8.23;7.40;;;31.20;38.50;;;;;;4975738;28;20432;-58
2022/06/19 07:56:07;;;;;;;11.60;7.90;;;31.30;36.60;;;;;;4973368;28;20636;-55
2022/06/19 07:58:36;;;;;;;9.87;8.30;;;31.50;36.10;;;;;;4971521;28;20192;-58
2022/06/19 08:01:02;;;;;;;8.27;7.47;;;31.40;35.70;;;;;;4973213;28;20464;-57
2022/06/19 08:03:28;;;;;;;10.83;7.43;;;31.50;35.40;;;;;;4972216;28;20468;-57
2022/06/19 08:05:53;;;;;;;13.17;8.37;;;31.60;35.00;;;;;;4972049;28;20432;-56
2022/06/19 08:08:24;;;;;;;10.17;7.80;;;31.70;34.80;;;;;;4972597;28;20188;-58
2022/06/19 08:10:52;;;;;;;10.30;7.87;;;31.80;34.30;;;;;;4972015;28;20215;-59
2022/06/19 08:13:20;;;;;;;13.47;7.60;;;32.00;33.90;;;;;;4972198;28;20429;-57
2022/06/19 08:15:48;;;;;;;8.90;8.10;;;32.10;33.60;;;;;;4971741;28;20966;-56
2022/06/19 08:18:14;;;;;;;8.63;7.73;;;32.30;32.70;;;;;;4972564;28;20423;-57
2022/06/19 08:20:53;;;;;;;11.40;8.40;;;32.30;32.50;;;;;;4969953;28;20963;-56
2022/06/19 08:23:19;;;;;;;9.50;8.60;;;32.30;32.20;;;;;;4972058;28;20503;-57
2022/06/19 08:25:46;;;;;;;9.93;8.37;;;32.30;31.60;;;;;;4969469;28;20425;-57
2022/06/19 08:28:19;;;;;;;9.63;7.57;;;32.20;31.40;;;;;;4968859;28;20483;-57
2022/06/19 08:30:45;;;;;;;21.17;7.87;;;32.10;31.10;;;;;;4969006;28;21401;-57
2022/06/19 08:33:11;;;;;;;9.17;8.10;;;32.20;31.20;;;;;;4980224;28;20448;-58
2022/06/19 08:35:47;;;;;;;8.67;7.77;;;32.10;31.10;;;;;;4970414;28;20247;-54
2022/06/19 08:38:18;;;;;;;9.90;8.40;;;32.10;31.50;;;;;;4966019;28;20966;-57
2022/06/19 08:41:09;;;;;;;11.50;7.83;;;32.10;31.60;;;;;;4972199;28;20473;-56
2022/06/19 08:43:37;;;;;;;9.83;8.30;;;32.30;31.60;;;;;;4967606;28;20523;-58
2022/06/19 08:46:39;;;;;;;9.30;8.40;;;32.40;31.40;;;;;;4973227;28;20511;-58
2022/06/19 08:49:42;;;;;;;15.00;8.27;;;32.60;31.20;;;;;;4971032;28;20452;-58
2022/06/19 08:52:41;;;;;;;9.40;8.20;;;32.70;31.20;;;;;;4954537;28;20493;-57
2022/06/19 08:55:16;;;;;;;16.10;8.97;;;32.70;30.80;;;;;;4965466;28;20433;-57
2022/06/19 08:58:11;;;;;;;9.60;8.70;;;32.90;30.90;;;;;;4967900;28;20783;-56
2022/06/19 09:01:04;;;;;;;13.57;8.80;;;33.00;30.60;;;;;;4966591;28;20485;-56
2022/06/19 09:07:02;;;;;;;10.10;9.07;;;32.80;31.00;;;;;;4966528;28;21034;-57
2022/06/19 09:09:45;;;;;;;10.90;8.80;;;32.80;31.30;;;;;;4967777;28;20438;-54
2022/06/19 09:12:14;;;;;;;10.80;9.50;;;33.00;31.20;;;;;;4967822;28;20471;-57
2022/06/19 09:14:48;;;;;;;13.60;8.80;;;33.20;30.80;;;;;;4964545;28;20961;-57
2022/06/19 09:18:14;;;;;;;9.53;8.57;;;33.40;30.90;;;;;;4957879;28;20567;-58
2022/06/19 09:20:44;;;;;;;9.97;8.80;;;33.50;30.20;;;;;;4986108;28;20448;-57
2022/06/19 09:23:52;;;;;;;10.20;9.20;;;33.60;30.00;;;;;;4987571;28;21268;-56
2022/06/19 09:26:25;;;;;;;11.03;8.90;;;33.70;30.00;;;;;;4968408;28;20511;-57
2022/06/19 09:29:01;;;;;;;10.67;9.50;;;34.00;30.00;;;;;;4965798;28;20441;-53
2022/06/19 09:31:38;;;;;;;9.83;8.77;;;34.20;29.70;;;;;;4968566;28;20451;-57
2022/06/19 09:34:28;;;;;;;9.20;8.60;;;34.20;29.60;;;;;;4969015;28;20428;-57
2022/06/19 09:36:54;;;;;;;9.60;8.80;;;34.60;29.00;;;;;;4969475;28;20576;-57
2022/06/19 09:39:47;;;;;;;11.90;9.07;;;35.20;28.80;;;;;;4968269;28;20432;-56
2022/06/19 09:42:25;;;;;;;10.77;9.47;;;35.40;28.00;;;;;;4962649;28;20225;-54
2022/06/19 09:45:08;;;;;;;10.73;9.60;;;35.40;28.10;;;;;;4969435;28;20462;-54
2022/06/19 09:47:55;;;;;;;10.83;9.17;;;35.40;28.20;;;;;;4968613;28;20442;-57
2022/06/19 09:50:35;;;;;;;10.00;9.20;;;35.70;27.60;;;;;;4963672;28;20429;-58
2022/06/19 09:53:14;;;;;;;10.33;9.20;;;35.80;28.30;;;;;;4967432;28;20421;-57
2022/06/19 09:55:46;;;;;;;10.60;9.67;;;36.30;27.10;;;;;;4965774;28;20464;-58
2022/06/19 09:58:15;;;;;;;10.60;9.70;;;36.50;26.80;;;;;;4967454;28;20432;-57
2022/06/19 10:00:45;;;;;;;10.20;9.23;;;36.80;26.20;;;;;;4967799;28;21375;-57
2022/06/19 10:03:18;;;;;;;11.53;10.57;;;36.80;27.00;;;;;;4963946;28;21009;-57
2022/06/19 10:06:08;;;;;;;9.83;8.93;;;36.80;26.30;;;;;;4967724;28;20471;-56
2022/06/19 10:08:43;;;;;;;10.27;9.27;;;36.70;25.90;;;;;;4965147;28;20437;-57
2022/06/19 10:11:30;;;;;;;10.10;9.10;;;37.10;25.40;;;;;;4967069;28;20552;-55
2022/06/19 10:14:04;;;;;;;14.03;9.40;;;37.50;24.70;;;;;;4966673;28;20887;-57
2022/06/19 10:17:02;;;;;;;10.10;8.63;;;37.70;24.10;;;;;;4969886;28;20521;-56
2022/06/19 10:19:31;;;;;;;10.30;9.40;;;37.50;23.80;;;;;;4952504;28;20451;-56
2022/06/19 10:22:13;;;;;;;11.03;9.10;;;37.70;23.40;;;;;;4964156;28;20523;-54
2022/06/19 10:25:11;;;;;;;10.07;9.00;;;37.80;23.30;;;;;;4967614;28;20527;-54
2022/06/19 10:27:55;;;;;;;10.33;9.33;;;38.00;22.90;;;;;;4967427;28;21021;-56
2022/06/19 10:30:59;;;;;;;12.20;9.60;;;37.70;23.50;;;;;;4967090;28;20989;-57
2022/06/19 10:33:54;;;;;;;10.23;9.13;;;37.60;22.60;;;;;;4973193;28;21210;-56
2022/06/19 10:36:25;;;;;;;10.77;9.30;;;37.90;22.10;;;;;;4964583;28;20492;-56
2022/06/19 10:39:12;;;;;;;11.70;8.70;;;38.30;22.30;;;;;;4966712;28;20446;-56
2022/06/19 10:42:15;;;;;;;10.17;8.40;;;38.10;22.10;;;;;;4956669;28;20966;-57
2022/06/19 10:45:08;;;;;;;11.33;8.93;;;38.30;21.90;;;;;;4967105;28;20444;-55
2022/06/19 10:47:39;;;;;;;11.87;9.10;;;38.70;21.90;;;;;;4968260;28;20468;-55
2022/06/19 10:50:40;;;;;;;10.67;9.27;;;39.20;21.20;;;;;;4968973;28;20432;-56
2022/06/19 10:53:30;;;;;;;8.97;8.20;;;39.30;21.40;;;;;;4959442;28;20451;-59
2022/06/19 10:56:13;;;;;;;11.00;8.30;;;39.70;21.50;;;;;;4965837;28;20425;-54
2022/06/19 10:58:39;;;;;;;9.97;8.77;;;40.20;20.90;;;;;;4961437;28;20428;-56
2022/06/19 11:01:07;;;;;;;9.37;8.57;;;40.40;18.50;;;;;;4961903;28;20538;-56
2022/06/19 11:06:34;;;;;;;9.90;7.80;;;39.70;19.10;;;;;;4967841;28;21000;-54
2022/06/19 11:09:19;;;;;;;8.50;7.67;;;39.20;19.00;;;;;;4964147;28;20511;-56
2022/06/19 11:11:46;;;;;;;11.50;8.20;;;39.40;19.10;;;;;;4964802;28;20439;-57
2022/06/19 11:14:28;;;;;;;12.47;8.60;;;39.60;18.50;;;;;;4968713;28;20564;-55
2022/06/19 11:17:12;;;;;;;9.37;8.40;;;40.00;18.00;;;;;;4967308;28;20424;-55
2022/06/19 11:19:42;;;;;;;10.10;7.40;;;40.40;17.80;;;;;;4956681;28;20436;-57
2022/06/19 11:22:31;;;;;;;13.80;7.90;;;40.70;17.20;;;;;;4956918;28;20496;-58
2022/06/19 11:25:19;;;;;;;12.90;8.63;;;41.10;16.80;;;;;;4968017;28;20423;-54
2022/06/19 11:28:12;;;;;;;9.20;8.30;;;41.20;16.30;;;;;;4969432;28;20437;-56
2022/06/19 11:30:54;;;;;;;9.10;8.13;;;41.30;16.50;;;;;;4966096;28;20436;-57
2022/06/19 11:33:30;;;;;;;11.20;8.20;;;40.90;16.00;;;;;;4970312;28;21087;-52
2022/06/19 11:36:00;;;;;;;9.23;8.20;;;41.00;16.20;;;;;;4967745;28;21346;-56
2022/06/19 11:38:38;;;;;;;12.13;7.47;;;41.10;15.40;;;;;;4958530;28;20512;-58
2022/06/19 11:41:17;;;;;;;14.70;8.33;;;41.30;14.50;;;;;;4959921;28;20490;-57
2022/06/19 11:43:42;;;;;;;14.90;8.70;;;41.90;14.60;;;;;;4962253;28;20440;-57
2022/06/19 11:46:19;;;;;;;10.50;8.03;;;42.40;15.00;;;;;;4955568;28;20409;-57
2022/06/19 11:48:45;;;;;;;11.80;8.60;;;42.20;13.70;;;;;;4964228;28;20216;-52
2022/06/19 11:51:23;;;;;;;12.83;9.07;;;41.70;13.70;;;;;;4961574;28;20472;-56
2022/06/19 11:53:58;;;;;;;10.23;7.60;;;41.10;13.70;;;;;;4949570;28;20777;-57
2022/06/19 11:56:33;;;;;;;13.00;8.03;;;41.00;14.00;;;;;;4954475;28;20464;-55
2022/06/19 11:59:05;;;;;;;12.73;8.03;;;41.30;13.90;;;;;;4958317;28;20432;-56
2022/06/19 12:01:35;;;;;;;14.20;8.07;;;41.90;13.40;;;;;;4963261;28;20472;-57
2022/06/19 12:04:03;;;;;;;12.97;8.23;;;41.90;13.20;;;;;;4962820;28;20517;-57
2022/06/19 12:06:50;;;;;;;12.70;7.70;;;42.30;13.00;;;;;;4968409;28;20779;-55
2022/06/19 12:09:31;;;;;;;15.10;8.00;;;42.50;12.80;;;;;;4955445;28;20568;-57
2022/06/19 12:12:12;;;;;;;14.03;7.63;;;42.70;12.20;;;;;;4953107;28;20424;-57
2022/06/19 12:15:18;;;;;;;18.10;7.53;;;43.60;11.90;;;;;;4958301;28;20427;-56
2022/06/19 12:17:45;;;;;;;12.37;7.93;;;44.10;11.10;;;;;;4963233;28;20451;-57
2022/06/19 12:20:10;;;;;;;10.97;7.33;;;44.00;10.40;;;;;;4954449;28;20474;-57
2022/06/19 12:22:54;;;;;;;14.43;7.50;;;43.80;11.10;;;;;;4957944;28;20539;-57
2022/06/19 12:25:46;;;;;;;10.10;6.93;;;44.50;10.60;;;;;;4954851;28;20189;-55
2022/06/19 12:28:20;;;;;;;8.27;7.07;;;44.10;10.70;;;;;;4970878;28;20423;-56
2022/06/19 12:31:05;;;;;;;11.80;6.93;;;44.20;11.00;;;;;;4966219;28;20442;-57
2022/06/19 12:34:01;;;;;;;11.03;8.37;;;45.00;10.60;;;;;;4966236;28;20446;-58
2022/06/19 12:36:32;;;;;;;9.67;7.53;;;45.20;10.20;;;;;;4967686;28;20423;-56
2022/06/19 12:38:57;;;;;;;12.97;7.80;;;45.50;10.00;;;;;;4963076;28;20531;-57
2022/06/19 12:41:35;;;;;;;9.37;7.00;;;45.60;9.50;;;;;;4967736;28;20463;-55
2022/06/19 12:44:16;;;;;;;13.30;7.77;;;45.60;9.60;;;;;;4965471;28;20180;-55
2022/06/19 12:47:13;;;;;;;11.90;7.50;;;45.80;9.90;;;;;;4965205;28;20784;-55
2022/06/19 12:50:06;;;;;;;10.50;7.43;;;45.30;9.30;;;;;;4966567;28;20179;-57
2022/06/19 12:52:58;;;;;;;13.80;8.37;;;45.80;9.40;;;;;;4965266;28;20862;-56
2022/06/19 12:55:56;;;;;;;12.00;7.43;;;45.90;9.40;;;;;;4977870;28;20192;-58
2022/06/19 12:58:56;;;;;;;14.13;8.23;;;44.90;9.10;;;;;;4961903;28;20267;-55
2022/06/19 13:01:59;;;;;;;12.70;8.00;;;45.70;9.40;;;;;;4965193;28;20458;-57
2022/06/19 13:04:43;;;;;;;10.00;7.53;;;45.80;8.90;;;;;;4961087;28;20188;-57
2022/06/19 13:07:29;;;;;;;10.37;7.73;;;45.40;9.70;;;;;;4953006;28;20523;-56
2022/06/19 13:10:22;;;;;;;13.37;8.00;;;45.60;9.40;;;;;;4965340;28;20495;-55